GCHI/VDE METAR and TAF weather

Enter ICAO airport designator
Station Type Date Time Source
GCHI METAR 2019/10/21 03:00 UTC NOAA

GCHI 210300Z AUTO 03014KT 9999 BKN033 22/16 Q1017


Station Type Date Time Source
GCHI Decoded METAR 2019/10/21 03:00 UTC NOAA

Hierro / Aeropuerto, Spain (GCHI) 27-49N 017-53W 32M
Oct 20, 2019 - 11:00 PM EDT / 2019.10.21 0300 UTC
Wind: from the NNE (030 degrees) at 16 MPH (14 KT):0
Visibility: greater than 7 mile(s):0
Sky conditions: mostly cloudy
Temperature: 71 F (22 C)
Dew Point: 60 F (16 C)
Relative Humidity: 68%
Pressure (altimeter): 30.03 in. Hg (1017 hPa)
ob: GCHI 210300Z AUTO 03014KT 9999 BKN033 22/16 Q1017
cycle: 3

Station Type Date Time Source
GCHI TAF 2019/10/21 03:00 UTC NOAA

TAF GCHI 210200Z 2103/2203 02015KT 9999 BKN045 TX25/2114Z TN21/2105Z

Example: see airport list